Time;durP1;ratioP1;P1;durP2;ratioP2;P2;SDS_P1;SDS_P2;PMS_P1;PMS_P2;Temp;Humidity;BMP_temperature;BMP_pressure;BME280_temperature;BME280_humidity;BME280_pressure;Samples;Min_cycle;Max_cycle;Signal;HPM_P1;HPM_P2
2022/10/31 00:01:01;;;;;;;17.33;6.43;;;;;;;9.68;100.00;99258.78;5067788;28;20093;-60
2022/10/31 00:03:26;;;;;;;17.13;6.63;;;;;;;9.65;100.00;99259.16;5063846;28;20031;-60
2022/10/31 00:05:52;;;;;;;15.02;6.25;;;;;;;9.63;100.00;99263.91;5083544;28;20031;-60
2022/10/31 00:08:18;;;;;;;11.70;6.07;;;;;;;9.68;100.00;99258.78;5069222;28;20321;-60
2022/10/31 00:10:45;;;;;;;12.77;6.72;;;;;;;9.62;100.00;99262.22;5054200;28;20500;-60
2022/10/31 00:13:11;;;;;;;13.07;6.00;;;;;;;9.62;100.00;99265.75;5063428;28;20031;-60
2022/10/31 00:15:38;;;;;;;10.73;5.65;;;;;;;9.62;100.00;99262.22;5061368;28;20035;-60
2022/10/31 00:18:05;;;;;;;17.40;6.43;;;;;;;9.55;100.00;99264.00;5056907;28;20059;-61
2022/10/31 00:20:31;;;;;;;12.98;6.47;;;;;;;9.53;100.00;99258.75;5062824;28;20056;-60
2022/10/31 00:23:01;;;;;;;11.43;5.90;;;;;;;9.59;100.00;99262.59;5065837;28;20467;-60
2022/10/31 00:25:28;;;;;;;15.15;6.25;;;;;;;9.70;100.00;99259.44;5061089;28;20065;-60
2022/10/31 00:27:53;;;;;;;11.48;5.88;;;;;;;9.58;100.00;99266.31;5065698;28;20059;-60
2022/10/31 00:30:19;;;;;;;14.45;6.78;;;;;;;9.69;100.00;99267.72;5064510;28;20313;-60
2022/10/31 00:32:44;;;;;;;12.27;6.00;;;;;;;9.66;100.00;99263.50;5061338;28;20039;-60
2022/10/31 00:35:10;;;;;;;16.80;5.82;;;;;;;9.61;100.00;99265.94;5059876;28;20056;-60
2022/10/31 00:37:35;;;;;;;14.60;5.97;;;;;;;9.50;100.00;99259.13;5062927;28;20032;-60
2022/10/31 00:40:01;;;;;;;11.50;6.95;;;;;;;9.53;100.00;99266.88;5066896;28;20077;-60
2022/10/31 00:42:26;;;;;;;13.45;6.70;;;;;;;9.49;100.00;99273.69;5066522;28;20040;-62
2022/10/31 00:44:51;;;;;;;14.52;6.50;;;;;;;9.46;100.00;99265.09;5066597;28;20047;-62
2022/10/31 00:47:17;;;;;;;12.95;6.22;;;;;;;9.47;100.00;99264.91;5066115;28;20395;-60
2022/10/31 00:49:42;;;;;;;17.10;7.20;;;;;;;9.47;100.00;99264.91;5060389;28;20074;-60
2022/10/31 00:52:07;;;;;;;18.63;6.28;;;;;;;9.36;100.00;99260.81;5062509;28;20032;-60
2022/10/31 00:54:33;;;;;;;11.32;6.15;;;;;;;9.32;100.00;99264.06;5064971;28;20394;-60
2022/10/31 00:56:58;;;;;;;13.38;6.93;;;;;;;9.31;100.00;99265.09;5065310;28;20032;-60
2022/10/31 00:59:23;;;;;;;10.48;6.28;;;;;;;9.31;100.00;99262.38;5063189;28;20245;-60
2022/10/31 01:01:49;;;;;;;17.50;6.60;;;;;;;9.49;100.00;99256.63;5066730;28;20028;-65
2022/10/31 01:04:14;;;;;;;13.90;6.22;;;;;;;9.42;100.00;99260.06;5065919;28;20036;-65
2022/10/31 01:06:41;;;;;;;19.88;7.22;;;;;;;9.33;100.00;99252.25;5059260;28;20035;-60
2022/10/31 01:09:07;;;;;;;15.70;6.75;;;;;;;9.30;100.00;99252.59;5074578;28;20474;-60
2022/10/31 01:11:34;;;;;;;12.85;5.63;;;;;;;9.15;100.00;99249.88;5061507;28;20062;-60
2022/10/31 01:14:00;;;;;;;13.48;5.63;;;;;;;9.14;100.00;99253.59;5067129;28;20028;-60
2022/10/31 01:16:27;;;;;;;14.77;5.68;;;;;;;9.15;100.00;99247.19;5066666;28;20079;-61
2022/10/31 01:18:52;;;;;;;10.30;5.63;;;;;;;9.08;100.00;99251.63;5065280;28;20513;-61
2022/10/31 01:21:24;;;;;;;14.18;5.82;;;;;;;9.03;100.00;99254.88;5072119;28;20024;-60
2022/10/31 01:23:50;;;;;;;12.18;5.35;;;;;;;9.07;100.00;99249.97;5063277;28;20024;-60
2022/10/31 01:26:19;;;;;;;16.83;5.75;;;;;;;8.94;100.00;99251.41;5064952;28;20094;-60
2022/10/31 01:28:56;;;;;;;13.52;6.35;;;;;;;8.87;100.00;99249.63;5072729;28;20028;-60
2022/10/31 01:31:26;;;;;;;10.27;5.25;;;;;;;8.81;100.00;99244.97;5062486;28;20090;-60
2022/10/31 01:33:52;;;;;;;10.40;5.60;;;;;;;8.74;100.00;99245.66;5065043;28;20035;-60
2022/10/31 01:36:24;;;;;;;17.48;6.20;;;;;;;8.78;100.00;99248.84;5070559;28;20024;-63
2022/10/31 01:38:51;;;;;;;10.48;5.70;;;;;;;8.84;100.00;99255.38;5069122;28;20026;-61
2022/10/31 01:41:21;;;;;;;12.85;5.70;;;;;;;8.82;100.00;99247.47;5074256;28;20403;-64
2022/10/31 01:43:53;;;;;;;10.27;5.13;;;;;;;8.88;100.00;99257.53;5063112;28;20352;-60
2022/10/31 01:46:44;;;;;;;12.82;4.88;;;;;;;8.74;100.00;99248.34;5082366;28;20082;-60
2022/10/31 01:49:18;;;;;;;13.02;5.38;;;;;;;8.76;100.00;99240.94;5082216;28;20026;-60
2022/10/31 01:52:24;;;;;;;16.02;5.28;;;;;;;8.80;100.00;99244.09;5064649;28;20120;-61
2022/10/31 01:55:04;;;;;;;10.82;5.00;;;;;;;8.78;100.00;99240.75;5051842;28;20032;-60
2022/10/31 01:57:31;;;;;;;13.52;5.43;;;;;;;8.78;100.00;99238.06;5065226;28;20055;-60
2022/10/31 02:00:03;;;;;;;12.60;5.90;;;;;;;8.81;100.00;99229.59;5055894;28;20024;-60
2022/10/31 02:02:31;;;;;;;15.38;5.47;;;;;;;8.87;100.00;99236.97;5060926;28;20441;-60
2022/10/31 02:05:00;;;;;;;11.77;5.57;;;;;;;8.83;100.00;99242.88;5060541;28;20111;-60
2022/10/31 02:07:33;;;;;;;10.75;5.80;;;;;;;8.84;100.00;99247.28;5070551;28;20460;-60
2022/10/31 02:10:00;;;;;;;8.00;5.05;;;;;;;8.87;100.00;99241.53;5068346;28;20468;-60
2022/10/31 02:12:26;;;;;;;13.88;5.55;;;;;;;8.83;100.00;99246.47;5081316;28;20035;-60
2022/10/31 02:14:51;;;;;;;18.65;5.95;;;;;;;8.81;100.00;99243.09;5059189;28;20541;-60
2022/10/31 02:17:17;;;;;;;15.88;5.25;;;;;;;8.80;100.00;99235.16;5064530;28;20110;-60
2022/10/31 02:20:21;;;;;;;15.40;6.50;;;;;;;8.85;100.00;99236.28;5058877;28;20551;-60
2022/10/31 02:23:16;;;;;;;12.82;5.55;;;;;;;8.81;100.00;99242.25;5063300;28;20081;-60
2022/10/31 02:26:05;;;;;;;14.13;6.00;;;;;;;8.90;100.00;99252.78;4991848;28;20140;-60
2022/10/31 02:28:46;;;;;;;14.57;5.63;;;;;;;8.86;100.00;99237.16;5077264;28;20454;-60
2022/10/31 02:31:30;;;;;;;9.98;4.78;;;;;;;9.05;100.00;99241.19;5070360;28;20476;-60
2022/10/31 02:34:27;;;;;;;9.02;4.72;;;;;;;8.92;100.00;99239.94;5080595;28;20036;-60
2022/10/31 02:37:00;;;;;;;14.82;5.13;;;;;;;8.82;100.00;99250.16;5050864;28;20037;-60
2022/10/31 02:39:49;;;;;;;11.70;5.03;;;;;;;8.73;100.00;99241.28;5063952;28;20506;-60
2022/10/31 02:42:25;;;;;;;9.07;4.68;;;;;;;8.66;100.00;99236.81;5063558;28;20024;-60
2022/10/31 02:45:05;;;;;;;9.70;4.63;;;;;;;8.64;100.00;99244.22;5071964;28;20467;-60
2022/10/31 02:47:36;;;;;;;12.32;5.00;;;;;;;8.63;100.00;99245.25;5072182;28;20390;-60
2022/10/31 02:50:08;;;;;;;15.40;5.18;;;;;;;8.70;100.00;99235.44;5061448;28;20036;-60
2022/10/31 02:52:35;;;;;;;8.65;4.60;;;;;;;8.69;100.00;99231.88;5056714;28;20028;-60
2022/10/31 02:55:33;;;;;;;18.13;5.68;;;;;;;8.71;100.00;99234.41;5066974;28;20471;-60
2022/10/31 02:58:15;;;;;;;16.70;5.47;;;;;;;8.64;100.00;99241.53;5069158;28;20050;-60
2022/10/31 03:01:02;;;;;;;15.82;5.38;;;;;;;8.61;100.00;99242.72;5066890;28;20054;-59
2022/10/31 03:03:28;;;;;;;12.90;5.43;;;;;;;8.63;100.00;99235.31;5073409;28;20550;-60
2022/10/31 03:06:14;;;;;;;11.25;5.05;;;;;;;8.77;100.00;99242.59;5078029;28;20027;-60
2022/10/31 03:08:59;;;;;;;13.80;5.35;;;;;;;8.75;100.00;99244.66;5070984;28;20028;-60
2022/10/31 03:11:32;;;;;;;9.85;5.00;;;;;;;8.69;100.00;99239.13;5068432;28;20034;-65
2022/10/31 03:14:06;;;;;;;12.95;4.68;;;;;;;8.58;100.00;99236.88;5067632;28;20028;-61
2022/10/31 03:16:49;;;;;;;14.05;5.43;;;;;;;8.51;100.00;99243.00;5071382;28;20172;-60
2022/10/31 03:19:31;;;;;;;14.25;5.35;;;;;;;8.45;100.00;99232.06;5064822;28;20035;-60
2022/10/31 03:22:12;;;;;;;14.27;5.80;;;;;;;8.28;100.00;99215.97;5079105;28;20028;-60
2022/10/31 03:24:39;;;;;;;14.10;5.68;;;;;;;8.39;100.00;99243.53;5058081;28;20119;-60
2022/10/31 03:27:09;;;;;;;17.38;5.53;;;;;;;8.32;100.00;99232.63;5061409;28;20115;-60
2022/10/31 03:29:37;;;;;;;15.18;5.88;;;;;;;8.31;100.00;99236.34;5061146;28;20373;-60
2022/10/31 03:32:10;;;;;;;19.73;6.63;;;;;;;8.38;100.00;99242.69;5066776;28;20036;-60
2022/10/31 03:34:39;;;;;;;11.18;5.43;;;;;;;8.37;100.00;99248.28;5081941;28;20059;-60
2022/10/31 03:37:09;;;;;;;9.27;4.53;;;;;;;8.21;100.00;99247.34;5060172;28;20118;-60
2022/10/31 03:39:38;;;;;;;11.20;4.25;;;;;;;8.09;100.00;99246.06;5060670;28;20028;-60
2022/10/31 03:42:15;;;;;;;6.70;4.07;;;;;;;7.87;100.00;99250.38;5065190;28;20533;-60
2022/10/31 03:44:45;;;;;;;8.38;4.18;;;;;;;7.73;100.00;99248.41;5066960;28;20044;-60
2022/10/31 03:47:11;;;;;;;8.15;3.83;;;;;;;7.74;100.00;99253.63;5066185;28;20036;-60
2022/10/31 03:49:37;;;;;;;6.78;3.78;;;;;;;7.64;100.00;99251.13;5064878;28;20379;-60
2022/10/31 03:52:28;;;;;;;5.82;3.13;;;;;;;7.68;100.00;99246.25;5057893;28;20044;-60
2022/10/31 03:54:59;;;;;;;5.30;2.60;;;;;;;7.67;100.00;99247.25;5065675;28;20035;-60
2022/10/31 03:57:54;;;;;;;4.97;3.30;;;;;;;7.66;100.00;99245.59;5059486;28;20144;-61
2022/10/31 04:00:19;;;;;;;7.60;3.85;;;;;;;7.68;100.00;99247.09;5054262;28;20043;-60
2022/10/31 04:03:05;;;;;;;8.55;4.90;;;;;;;7.81;100.00;99241.16;5063713;28;20425;-60
2022/10/31 04:05:33;;;;;;;9.13;4.47;;;;;;;7.80;100.00;99247.53;5062948;28;20039;-60
2022/10/31 04:08:02;;;;;;;6.93;4.22;;;;;;;7.78;100.00;99240.63;5061102;28;20108;-61
2022/10/31 04:10:29;;;;;;;9.63;4.93;;;;;;;7.76;100.00;99245.38;5053265;28;20028;-60
2022/10/31 04:13:01;;;;;;;7.00;4.50;;;;;;;7.76;100.00;99237.31;5066936;28;20409;-60
2022/10/31 04:15:28;;;;;;;6.72;4.45;;;;;;;7.72;100.00;99235.97;5062769;28;20035;-60
2022/10/31 04:17:57;;;;;;;13.50;6.40;;;;;;;7.79;100.00;99234.25;5058178;28;20020;-61
2022/10/31 04:20:31;;;;;;;10.70;4.85;;;;;;;7.81;100.00;99240.31;5062171;28;20024;-61
2022/10/31 04:22:56;;;;;;;9.75;4.32;;;;;;;7.82;100.00;99234.72;5077792;28;20527;-60
2022/10/31 04:25:21;;;;;;;7.30;3.80;;;;;;;7.87;100.00;99234.22;5084689;28;20117;-61
2022/10/31 04:27:47;;;;;;;11.98;4.15;;;;;;;7.81;100.00;99229.53;5059477;28;20042;-60
2022/10/31 04:30:12;;;;;;;8.07;4.05;;;;;;;7.81;100.00;99233.06;5059807;28;20032;-60
2022/10/31 04:32:38;;;;;;;8.15;3.97;;;;;;;7.79;100.00;99227.00;5063594;28;20036;-61
2022/10/31 04:35:03;;;;;;;5.72;3.45;;;;;;;7.83;100.00;99228.34;5062102;28;20035;-61
2022/10/31 04:37:29;;;;;;;6.35;3.58;;;;;;;7.94;100.00;99229.81;5058552;28;20024;-61
2022/10/31 04:39:54;;;;;;;4.97;3.70;;;;;;;7.87;100.00;99220.75;5063761;28;20039;-60
2022/10/31 04:42:19;;;;;;;7.22;3.80;;;;;;;7.84;100.00;99221.09;5064946;28;20028;-61
2022/10/31 04:44:45;;;;;;;9.27;4.80;;;;;;;7.75;100.00;99224.84;5070069;28;20036;-60
2022/10/31 04:47:10;;;;;;;6.65;4.22;;;;;;;7.72;100.00;99215.25;5055933;28;20458;-61
2022/10/31 04:49:35;;;;;;;7.88;3.83;;;;;;;7.74;100.00;99218.63;5067541;28;20697;-61
2022/10/31 04:52:01;;;;;;;6.88;4.10;;;;;;;7.74;100.00;99207.84;5076434;28;20024;-63
2022/10/31 04:54:26;;;;;;;7.55;4.47;;;;;;;7.73;100.00;99208.88;5067055;28;20063;-60
2022/10/31 04:56:51;;;;;;;6.93;4.45;;;;;;;7.75;100.00;99211.38;5067741;28;20051;-60
2022/10/31 04:59:17;;;;;;;8.65;4.28;;;;;;;7.69;100.00;99200.28;5058245;28;20077;-60
2022/10/31 05:01:42;;;;;;;7.68;3.72;;;;;;;7.63;100.00;99200.16;5065434;28;20107;-60
2022/10/31 05:04:08;;;;;;;7.55;4.05;;;;;;;7.63;100.00;99200.16;5062957;28;20038;-60
2022/10/31 05:06:33;;;;;;;5.45;3.95;;;;;;;7.50;100.00;99191.78;5082557;28;20032;-61
2022/10/31 05:08:58;;;;;;;6.45;3.80;;;;;;;7.46;100.00;99193.97;5065763;28;20049;-60
2022/10/31 05:11:24;;;;;;;9.60;4.32;;;;;;;7.44;100.00;99191.47;5071229;28;20077;-60
2022/10/31 05:13:49;;;;;;;9.10;4.10;;;;;;;7.44;100.00;99182.53;5070550;28;20024;-60
2022/10/31 05:16:14;;;;;;;5.93;3.92;;;;;;;7.39;100.00;99182.25;5065639;28;20034;-60
2022/10/31 05:18:40;;;;;;;9.38;4.80;;;;;;;7.47;100.00;99188.44;5071440;28;20031;-60
2022/10/31 05:21:05;;;;;;;12.43;5.20;;;;;;;7.49;100.00;99184.72;5071835;28;20514;-60
2022/10/31 05:23:31;;;;;;;12.00;4.78;;;;;;;7.48;100.00;99181.19;5066627;28;20026;-60
2022/10/31 05:25:56;;;;;;;11.15;4.63;;;;;;;7.44;100.00;99182.53;5086165;28;20425;-60
2022/10/31 05:28:21;;;;;;;10.38;4.47;;;;;;;7.37;100.00;99174.34;5067805;28;20115;-61
2022/10/31 05:30:47;;;;;;;5.95;3.65;;;;;;;7.30;100.00;99181.41;5067661;28;20074;-60
2022/10/31 05:33:12;;;;;;;7.53;4.30;;;;;;;7.34;100.00;99181.94;5068314;28;20715;-61
2022/10/31 05:35:37;;;;;;;9.02;4.45;;;;;;;7.31;100.00;99182.25;5064712;28;20387;-61
2022/10/31 05:38:03;;;;;;;6.43;3.35;;;;;;;7.24;100.00;99184.81;5058990;28;20043;-61
2022/10/31 05:40:28;;;;;;;9.45;4.72;;;;;;;7.20;100.00;99178.06;5059828;28;20036;-61
2022/10/31 05:42:55;;;;;;;8.27;3.72;;;;;;;7.19;100.00;99182.63;5054693;28;20060;-60
2022/10/31 05:45:21;;;;;;;8.30;4.47;;;;;;;7.22;100.00;99184.97;5058508;28;20032;-60
2022/10/31 05:47:57;;;;;;;8.00;4.30;;;;;;;7.20;100.00;99184.31;5065197;28;20038;-60
2022/10/31 05:50:24;;;;;;;7.53;4.05;;;;;;;7.15;100.00;99186.69;5058524;28;20037;-61
2022/10/31 05:52:57;;;;;;;8.93;4.57;;;;;;;7.38;100.00;99183.25;5068714;28;20111;-61
2022/10/31 05:55:23;;;;;;;10.27;4.60;;;;;;;7.47;100.00;99176.84;5076001;28;20505;-60
2022/10/31 05:57:48;;;;;;;8.98;5.18;;;;;;;7.54;100.00;99175.09;5060240;28;20024;-60
2022/10/31 06:00:14;;;;;;;14.95;5.75;;;;;;;7.63;100.00;99178.63;5059704;28;20046;-61
2022/10/31 06:02:39;;;;;;;12.27;5.47;;;;;;;7.66;100.00;99178.25;5073608;28;20062;-61
2022/10/31 06:05:04;;;;;;;13.32;5.57;;;;;;;7.47;100.00;99174.97;5086628;28;20028;-62
2022/10/31 06:07:34;;;;;;;10.60;5.20;;;;;;;7.40;100.00;99168.59;5088519;28;20032;-60
2022/10/31 06:10:00;;;;;;;14.35;6.10;;;;;;;7.35;100.00;99180.91;5065483;28;20032;-60
2022/10/31 06:12:26;;;;;;;12.05;5.68;;;;;;;7.42;100.00;99174.66;5066394;28;20178;-60
2022/10/31 06:14:51;;;;;;;12.05;5.97;;;;;;;7.42;100.00;99180.03;5062038;28;20020;-61
2022/10/31 06:17:16;;;;;;;14.52;5.68;;;;;;;7.45;100.00;99176.16;5058102;28;20038;-60
2022/10/31 06:19:42;;;;;;;10.32;5.43;;;;;;;7.46;100.00;99183.22;5067448;28;20036;-61
2022/10/31 06:22:07;;;;;;;15.05;5.90;;;;;;;7.52;100.00;99187.91;5068593;28;20072;-60
2022/10/31 06:24:33;;;;;;;15.70;6.40;;;;;;;7.58;100.00;99187.22;5068632;28;20470;-61
2022/10/31 06:26:59;;;;;;;14.00;5.65;;;;;;;7.69;100.00;99184.13;5065461;28;20130;-60
2022/10/31 06:29:24;;;;;;;11.45;5.13;;;;;;;7.69;100.00;99184.13;5062521;28;20051;-60
2022/10/31 06:31:52;;;;;;;7.38;4.47;;;;;;;7.69;100.00;99176.03;5067400;28;20081;-60
2022/10/31 06:34:18;;;;;;;16.33;5.20;;;;;;;7.82;100.00;99171.94;5058319;28;20551;-61
2022/10/31 06:36:45;;;;;;;13.52;5.78;;;;;;;8.03;100.00;99174.03;5067633;28;20059;-60
2022/10/31 06:39:11;;;;;;;11.68;5.00;;;;;;;8.17;100.00;99170.53;5061327;28;20395;-60
2022/10/31 06:41:36;;;;;;;14.15;4.80;;;;;;;8.43;100.00;99164.00;5062071;28;20020;-60
2022/10/31 06:44:02;;;;;;;13.90;4.68;;;;;;;8.62;100.00;99168.91;5059502;28;20411;-59
2022/10/31 06:46:28;;;;;;;10.38;5.38;;;;;;;9.15;100.00;99148.13;5070099;28;20035;-58
2022/10/31 06:48:53;;;;;;;9.27;4.80;;;;;;;9.94;100.00;99161.00;5066809;28;20032;-58
2022/10/31 06:51:19;;;;;;;10.55;5.05;;;;;;;10.30;100.00;99142.06;5059758;28;20491;-58
2022/10/31 06:53:45;;;;;;;6.10;3.90;;;;;;;11.69;100.00;99132.41;5065226;28;20034;-59
2022/10/31 06:56:10;;;;;;;7.75;3.80;;;;;;;13.02;100.00;99127.16;5065556;28;20060;-59
2022/10/31 06:58:36;;;;;;;8.40;3.70;;;;;;;13.90;100.00;99122.09;5061430;28;20024;-60
2022/10/31 07:01:02;;;;;;;6.15;2.85;;;;;;;14.32;100.00;99127.91;5065436;28;20120;-66
2022/10/31 07:03:27;;;;;;;5.47;2.70;;;;;;;14.74;100.00;99121.97;5070719;28;20465;-60
2022/10/31 07:05:55;;;;;;;4.45;2.65;;;;;;;15.06;100.00;99130.91;5066424;28;20031;-59
2022/10/31 07:08:21;;;;;;;5.68;2.78;;;;;;;15.70;100.00;99134.25;5054911;28;20012;-60
2022/10/31 07:10:55;;;;;;;5.68;2.30;;;;;;;16.11;100.00;99135.38;5083099;28;20440;-60
2022/10/31 07:13:30;;;;;;;3.97;2.08;;;;;;;16.80;100.00;99135.84;5069603;28;20039;-60
2022/10/31 07:16:01;;;;;;;3.03;2.13;;;;;;;16.30;100.00;99142.47;5061683;28;20028;-60
2022/10/31 07:18:27;;;;;;;2.00;1.70;;;;;;;16.06;100.00;99141.53;5059118;28;20024;-60
2022/10/31 07:20:52;;;;;;;2.38;1.92;;;;;;;15.70;100.00;99142.41;5068740;28;20050;-60
2022/10/31 07:23:18;;;;;;;9.18;4.10;;;;;;;15.37;100.00;99143.59;5057705;28;20033;-60
2022/10/31 07:25:44;;;;;;;12.50;4.90;;;;;;;16.30;100.00;99142.47;5080423;28;20130;-60
2022/10/31 07:28:09;;;;;;;10.95;5.07;;;;;;;15.75;100.00;99148.03;5057966;28;20024;-60
2022/10/31 07:30:35;;;;;;;8.98;4.75;;;;;;;16.63;100.00;99143.84;5062839;28;20043;-64
2022/10/31 07:33:01;;;;;;;7.30;4.60;;;;;;;16.19;100.00;99151.41;5061400;28;20034;-60
2022/10/31 07:35:28;;;;;;;9.05;5.72;;;;;;;15.04;100.00;99152.94;5063903;28;20418;-60
2022/10/31 07:37:54;;;;;;;7.43;4.82;;;;;;;14.95;100.00;99148.81;5054639;28;20040;-60
2022/10/31 07:40:20;;;;;;;8.88;4.13;;;;;;;14.35;100.00;99153.84;5062257;28;20140;-59
2022/10/31 07:42:49;;;;;;;7.30;3.67;;;;;;;14.19;100.00;99147.03;5084622;28;20040;-59
2022/10/31 07:45:17;;;;;;;9.80;3.38;;;;;;;15.08;100.00;99147.88;5065904;28;20077;-59
2022/10/31 07:47:52;;;;;;;7.22;3.13;;;;;;;15.22;100.00;99143.09;5058581;28;20039;-59
2022/10/31 07:50:22;;;;;;;3.42;2.63;;;;;;;15.20;100.00;99142.53;5064717;28;20040;-59
2022/10/31 07:52:47;;;;;;;;;;;;;;;15.38;100.00;99142.53;5064541;28;20043;-59
2022/10/31 07:55:14;;;;;;;7.40;3.42;;;;;;;16.04;100.00;99146.38;5069307;28;19916;-59
2022/10/31 07:57:40;;;;;;;7.57;3.33;;;;;;;16.32;100.00;99150.41;5063522;28;20055;-59
2022/10/31 08:00:07;;;;;;;6.65;3.25;;;;;;;16.36;100.00;99113.38;5061142;28;20535;-59
2022/10/31 08:02:33;;;;;;;6.38;4.35;;;;;;;16.67;100.00;99139.59;5059298;28;20541;-59
2022/10/31 08:04:59;;;;;;;9.60;5.95;;;;;;;16.15;100.00;99142.03;5062072;28;20073;-59
2022/10/31 08:07:25;;;;;;;10.77;7.03;;;;;;;16.34;100.00;99143.63;5060772;28;20118;-59
2022/10/31 08:09:51;;;;;;;10.77;5.47;;;;;;;16.24;100.00;99139.81;5080934;28;20028;-59
2022/10/31 08:12:17;;;;;;;7.40;4.43;;;;;;;16.53;100.00;99138.09;5065409;28;20383;-59
2022/10/31 08:14:44;;;;;;;5.72;3.72;;;;;;;16.83;100.00;99130.72;5060502;28;20797;-59
2022/10/31 08:17:11;;;;;;;8.88;3.95;;;;;;;17.68;100.00;99134.00;5060384;28;20044;-59
2022/10/31 08:19:36;;;;;;;9.85;3.60;;;;;;;17.79;100.00;99132.28;5075774;28;20035;-59
2022/10/31 08:22:02;;;;;;;5.68;3.25;;;;;;;18.14;100.00;99130.31;5054725;28;20097;-60
2022/10/31 08:24:27;;;;;;;6.07;2.67;;;;;;;18.34;100.00;99129.03;5073399;28;20143;-59
2022/10/31 08:26:52;;;;;;;5.45;2.80;;;;;;;17.84;100.00;99121.47;5058786;28;20037;-59
2022/10/31 08:29:18;;;;;;;5.60;2.95;;;;;;;17.34;100.00;99130.25;5058671;28;20020;-60
2022/10/31 08:31:43;;;;;;;5.25;2.90;;;;;;;17.92;100.00;99132.03;5060119;28;20111;-60
2022/10/31 08:34:10;;;;;;;4.78;2.65;;;;;;;18.78;100.00;99129.25;5069639;28;20110;-60
2022/10/31 08:36:36;;;;;;;6.63;3.28;;;;;;;18.74;100.00;99131.66;5065407;28;20036;-63
2022/10/31 08:39:02;;;;;;;9.57;3.17;;;;;;;18.68;100.00;99118.09;5063000;28;20025;-67
2022/10/31 08:41:28;;;;;;;7.05;3.00;;;;;;;19.14;100.00;99116.94;5079947;28;20046;-60
2022/10/31 08:43:53;;;;;;;7.18;2.72;;;;;;;19.32;100.00;99115.84;5059982;28;20456;-62
2022/10/31 08:46:18;;;;;;;6.13;3.20;;;;;;;18.60;100.00;99108.38;5062010;28;20029;-62
2022/10/31 08:48:44;;;;;;;5.60;2.67;;;;;;;18.49;100.00;99112.84;5062952;28;20126;-60
2022/10/31 08:51:11;;;;;;;12.18;3.42;;;;;;;17.98;100.00;99108.38;5061156;28;20040;-59
2022/10/31 08:53:36;;;;;;;6.65;3.35;;;;;;;17.79;100.00;99100.34;5063141;28;20031;-68
2022/10/31 08:56:02;;;;;;;6.60;3.30;;;;;;;17.58;100.00;99100.94;5064282;28;20024;-63
2022/10/31 08:58:28;;;;;;;7.63;3.28;;;;;;;17.54;100.00;99106.06;5059244;28;20029;-60
2022/10/31 09:00:54;;;;;;;10.93;4.47;;;;;;;17.25;100.00;99100.53;5080998;28;20069;-66
2022/10/31 09:03:25;;;;;;;12.15;3.92;;;;;;;16.84;100.00;99102.31;5078647;28;20464;-66
2022/10/31 09:05:56;;;;;;;10.00;3.92;;;;;;;16.64;100.00;99090.88;5068775;28;20040;-70
2022/10/31 09:08:21;;;;;;;9.32;4.15;;;;;;;16.77;100.00;99096.16;5061321;28;20060;-59
2022/10/31 09:10:47;;;;;;;9.00;3.80;;;;;;;17.09;100.00;99090.31;5063053;28;20051;-59
2022/10/31 09:13:16;;;;;;;12.23;4.03;;;;;;;17.37;100.00;99086.84;5060652;28;20396;-63
2022/10/31 09:15:43;;;;;;;9.63;3.65;;;;;;;17.17;100.00;99087.22;5062045;28;20077;-58
2022/10/31 09:18:12;;;;;;;9.52;4.20;;;;;;;17.09;100.00;99084.88;5079559;28;20078;-58
2022/10/31 09:20:38;;;;;;;10.48;3.65;;;;;;;17.42;100.00;99077.91;5056525;28;20028;-58
2022/10/31 09:23:09;;;;;;;9.00;3.35;;;;;;;18.06;100.00;99078.69;5077767;28;20035;-61
2022/10/31 09:25:35;;;;;;;7.55;3.72;;;;;;;17.90;100.00;99083.03;5061150;28;20027;-57
2022/10/31 09:28:03;;;;;;;7.82;3.28;;;;;;;18.48;100.00;99080.25;5082513;28;20024;-57
2022/10/31 09:30:31;;;;;;;10.18;4.15;;;;;;;18.33;100.00;99078.06;5066916;28;20044;-59
2022/10/31 09:32:59;;;;;;;12.55;4.18;;;;;;;18.35;100.00;99076.72;5064429;28;20024;-57
2022/10/31 09:35:25;;;;;;;6.75;4.00;;;;;;;18.48;100.00;99081.06;5070842;28;20403;-58
2022/10/31 09:38:01;;;;;;;10.45;4.28;;;;;;;18.54;100.00;99071.00;5064159;28;20021;-57
2022/10/31 09:40:40;;;;;;;11.68;4.85;;;;;;;18.57;100.00;99079.56;5065067;28;20051;-57
2022/10/31 09:43:23;;;;;;;6.97;4.10;;;;;;;18.82;100.00;99078.34;5061558;28;20545;-57
2022/10/31 09:46:07;;;;;;;8.73;3.88;;;;;;;19.59;100.00;99090.38;5063264;28;20123;-60
2022/10/31 09:48:53;;;;;;;16.10;4.35;;;;;;;20.00;100.00;99080.75;5083989;28;20024;-61
2022/10/31 09:51:24;;;;;;;10.88;4.15;;;;;;;19.83;100.00;99083.59;5077863;28;20028;-58
2022/10/31 09:54:10;;;;;;;7.38;3.72;;;;;;;20.49;100.00;99071.63;5063805;28;20036;-58
2022/10/31 09:56:37;;;;;;;11.70;3.85;;;;;;;20.50;100.00;99067.78;5067085;28;20027;-58
2022/10/31 09:59:06;;;;;;;8.98;3.22;;;;;;;20.83;100.00;99072.19;5069856;28;20055;-58
2022/10/31 10:01:31;;;;;;;;;;;;;;;21.02;100.00;99059.66;5064604;28;20028;-59
2022/10/31 10:04:19;;;;;;;7.40;3.60;;;;;;;21.22;100.00;99061.72;5066980;28;20328;-60
2022/10/31 10:06:47;;;;;;;9.50;3.78;;;;;;;21.58;100.00;99066.59;5089001;28;20750;-60
2022/10/31 10:09:12;;;;;;;11.40;3.80;;;;;;;22.28;94.98;99067.91;5065404;28;20020;-58
2022/10/31 10:12:00;;;;;;;8.95;3.55;;;;;;;21.91;97.28;99067.25;5062735;28;20058;-60
2022/10/31 10:14:31;;;;;;;11.15;3.22;;;;;;;;;;5062905;28;20114;-60
2022/10/31 10:17:48;;;;;;;9.25;3.75;;;;;;;22.66;82.47;99062.13;5063118;28;20446;-55
2022/10/31 10:20:38;;;;;;;10.55;4.07;;;;;;;22.78;87.46;99065.44;4997753;28;20160;-55
2022/10/31 10:23:19;;;;;;;12.18;3.95;;;;;;;22.47;91.13;99057.16;5062344;28;20030;-55
2022/10/31 10:25:49;;;;;;;9.15;3.80;;;;;;;22.35;89.47;99062.13;5077635;28;20054;-54
2022/10/31 10:28:26;;;;;;;10.40;3.88;;;;;;;21.73;96.23;99066.66;5061017;28;20023;-57
2022/10/31 10:31:03;;;;;;;14.45;4.07;;;;;;;21.35;100.00;99056.81;5078711;28;20050;-59
2022/10/31 10:33:32;;;;;;;14.13;4.60;;;;;;;21.19;100.00;99073.22;5063419;28;20036;-59
2022/10/31 10:36:07;;;;;;;11.70;4.20;;;;;;;21.81;99.95;99059.78;5057266;28;20692;-59
2022/10/31 10:38:35;;;;;;;8.00;4.03;;;;;;;21.74;99.83;99053.69;5060370;28;20064;-59
2022/10/31 10:41:06;;;;;;;10.75;3.97;;;;;;;20.66;100.00;99050.34;5059597;28;20043;-61
2022/10/31 10:43:37;;;;;;;9.90;3.90;;;;;;;20.84;100.00;99053.75;5064190;28;20027;-59
2022/10/31 10:49:19;;;;;;;9.63;3.97;;;;;;;20.70;100.00;99034.16;5082932;28;20035;-59
2022/10/31 10:51:55;;;;;;;9.65;4.18;;;;;;;20.92;100.00;99025.75;5061549;28;20539;-61
2022/10/31 10:54:59;;;;;;;10.25;4.75;;;;;;;20.40;100.00;99037.44;5065155;28;20032;-60
2022/10/31 10:57:53;;;;;;;10.15;4.45;;;;;;;20.60;100.00;99029.41;5056653;28;20020;-60
2022/10/31 11:00:22;;;;;;;12.95;4.97;;;;;;;20.44;100.00;99024.84;5058518;28;20085;-60
2022/10/31 11:02:48;;;;;;;14.10;4.85;;;;;;;20.21;100.00;99015.03;5068250;28;20031;-60
2022/10/31 11:05:42;;;;;;;10.90;4.85;;;;;;;20.09;100.00;99012.44;5056272;28;20028;-59
2022/10/31 11:08:08;;;;;;;10.15;4.75;;;;;;;20.71;100.00;99009.13;5061935;28;20063;-59
2022/10/31 11:10:34;;;;;;;14.73;4.78;;;;;;;19.66;100.00;99014.19;5067815;28;20059;-60
2022/10/31 11:13:01;;;;;;;12.13;4.75;;;;;;;20.10;100.00;99003.94;5058274;28;20023;-60
2022/10/31 11:15:30;;;;;;;16.25;4.68;;;;;;;20.52;100.00;98997.69;5071728;28;20028;-59
2022/10/31 11:17:57;;;;;;;13.98;4.95;;;;;;;19.92;100.00;98996.91;5068188;28;20032;-60
2022/10/31 11:20:35;;;;;;;11.73;4.97;;;;;;;19.64;100.00;98994.38;5076944;28;20407;-60
2022/10/31 11:23:23;;;;;;;20.65;5.72;;;;;;;19.72;100.00;98985.72;5082353;28;20032;-59
2022/10/31 11:25:54;;;;;;;13.25;5.10;;;;;;;19.70;100.00;98987.88;5063417;28;20030;-60
2022/10/31 11:28:20;;;;;;;14.65;5.10;;;;;;;19.97;100.00;98982.41;5078349;28;20036;-60
2022/10/31 11:30:50;;;;;;;8.85;4.20;;;;;;;20.20;100.00;98975.75;5054741;28;20463;-60
2022/10/31 11:33:46;;;;;;;11.48;4.18;;;;;;;20.66;100.00;98970.59;5074994;28;20028;-58
2022/10/31 11:36:25;;;;;;;15.02;4.68;;;;;;;20.18;100.00;98972.44;5054130;28;20040;-58
2022/10/31 11:38:51;;;;;;;9.95;4.50;;;;;;;19.89;100.00;98964.47;5068452;28;20043;-58
2022/10/31 11:41:24;;;;;;;10.90;4.60;;;;;;;19.83;100.00;98960.03;5062540;28;20166;-58
2022/10/31 11:44:00;;;;;;;12.27;4.72;;;;;;;20.28;100.00;98950.53;5078211;28;20021;-58